Time;durP1;ratioP1;P1;durP2;ratioP2;P2;SDS_P1;SDS_P2;PMS_P1;PMS_P2;Temp;Humidity;BMP_temperature;BMP_pressure;BME280_temperature;BME280_humidity;BME280_pressure;Samples;Min_cycle;Max_cycle;Signal;HPM_P1;HPM_P2
2023/01/21 00:02:12;;;;;;;94.28;41.80;;;;;;;-1.78;100.00;102592.91;4992805;28;20144;-50
2023/01/21 00:04:37;;;;;;;84.90;40.92;;;;;;;-1.75;100.00;102593.00;4975022;28;20130;-50
2023/01/21 00:07:06;;;;;;;85.25;40.90;;;;;;;-1.73;100.00;102587.13;4974654;28;20034;-51
2023/01/21 00:09:33;;;;;;;90.78;39.80;;;;;;;-1.76;100.00;102599.00;4992338;28;20466;-48
2023/01/21 00:12:01;;;;;;;93.78;41.15;;;;;;;-2.16;100.00;102536.94;4974575;28;20478;-50
2023/01/21 00:14:30;;;;;;;98.10;40.95;;;;;;;-2.17;100.00;102548.09;4992231;28;20184;-50
2023/01/21 00:16:57;;;;;;;94.47;41.15;;;;;;;-1.88;100.00;102594.16;4992422;28;20206;-48
2023/01/21 00:19:23;;;;;;;91.38;40.80;;;;;;;-2.30;100.00;102532.84;4992241;28;20033;-49
2023/01/21 00:21:48;;;;;;;89.50;41.47;;;;;;;-1.86;100.00;102607.13;4992492;28;20474;-47
2023/01/21 00:24:13;;;;;;;92.80;42.10;;;;;;;-1.96;100.00;102589.47;4992149;28;20470;-48
2023/01/21 00:26:39;;;;;;;95.22;43.15;;;;;;;-1.88;100.00;102616.50;4974839;28;20617;-54
2023/01/21 00:29:04;;;;;;;95.93;41.85;;;;;;;-2.03;100.00;102603.78;4990714;28;20587;-52
2023/01/21 00:31:29;;;;;;;89.35;40.45;;;;;;;-2.42;100.00;102543.47;4982469;28;20042;-49
2023/01/21 00:33:54;;;;;;;91.15;42.13;;;;;;;-1.97;100.00;102631.56;4974663;28;20403;-49
2023/01/21 00:36:21;;;;;;;87.88;42.08;;;;;;;-2.30;100.00;102579.25;4992356;28;20042;-51
2023/01/21 00:38:49;;;;;;;95.20;43.22;;;;;;;-1.96;100.00;102641.09;4992171;28;20043;-48
2023/01/21 00:41:14;;;;;;;92.30;42.13;;;;;;;-2.34;100.00;102583.41;4974740;28;20067;-50
2023/01/21 00:43:40;;;;;;;92.18;42.13;;;;;;;-1.97;100.00;102641.88;4974596;28;20065;-49
2023/01/21 00:46:07;;;;;;;97.47;42.03;;;;;;;-2.34;100.00;102591.16;4992211;28;20454;-49
2023/01/21 00:48:33;;;;;;;93.40;41.10;;;;;;;-2.02;100.00;102651.13;4974769;28;20022;-49
2023/01/21 00:50:59;;;;;;;96.07;42.50;;;;;;;-2.14;100.00;102633.34;4992220;28;20101;-49
2023/01/21 00:53:34;;;;;;;97.80;44.60;;;;;;;-2.05;100.00;102650.97;4992119;28;20102;-47
2023/01/21 00:56:00;;;;;;;95.72;43.03;;;;;;;-2.57;100.00;102571.09;4974716;28;20030;-49
2023/01/21 00:58:26;;;;;;;103.40;44.40;;;;;;;-2.15;100.00;102649.63;4991952;28;20038;-50
2023/01/21 01:01:00;;;;;;;99.00;43.42;;;;;;;-2.10;100.00;102660.19;4991753;28;20109;-47
2023/01/21 01:03:25;;;;;;;103.82;43.47;;;;;;;-2.57;100.00;102573.66;4991823;28;20465;-49
2023/01/21 01:05:50;;;;;;;97.40;43.15;;;;;;;-2.58;100.00;102589.97;4991896;28;20039;-50
2023/01/21 01:08:16;;;;;;;93.55;41.65;;;;;;;-2.61;100.00;102583.78;4991985;28;20042;-54
2023/01/21 01:10:41;;;;;;;97.70;42.80;;;;;;;-2.20;100.00;102674.34;4991744;28;20038;-53
2023/01/21 01:13:06;;;;;;;102.60;42.90;;;;;;;-2.18;100.00;102679.56;4992107;28;20057;-51
2023/01/21 01:15:32;;;;;;;96.65;43.28;;;;;;;-2.17;100.00;102677.06;4992154;28;20063;-51
2023/01/21 01:17:57;;;;;;;112.40;45.58;;;;;;;-2.60;100.00;102596.75;4992008;28;20390;-50
2023/01/21 01:20:22;;;;;;;107.28;46.10;;;;;;;-2.21;100.00;102669.97;4995167;28;20148;-52
2023/01/21 01:22:47;;;;;;;103.40;44.13;;;;;;;-2.66;100.00;102601.59;4995396;28;20030;-51
2023/01/21 01:25:13;;;;;;;114.03;45.85;;;;;;;-2.64;100.00;102604.25;4984147;28;20461;-49
2023/01/21 01:27:38;;;;;;;113.78;45.83;;;;;;;-2.36;100.00;102667.53;4975831;28;20066;-51
2023/01/21 01:30:04;;;;;;;105.63;45.05;;;;;;;-2.31;100.00;102680.69;4975297;28;20402;-52
2023/01/21 01:32:29;;;;;;;102.90;43.53;;;;;;;-2.81;100.00;102603.44;4975543;28;20039;-48
2023/01/21 01:34:55;;;;;;;114.13;46.33;;;;;;;-2.39;100.00;102689.72;4975134;28;20039;-51
2023/01/21 01:37:20;;;;;;;117.60;44.45;;;;;;;-2.44;100.00;102701.50;4958326;28;20038;-50
2023/01/21 01:39:45;;;;;;;115.30;44.67;;;;;;;-2.98;100.00;102606.84;4975722;28;20031;-50
2023/01/21 01:42:16;;;;;;;116.45;44.70;;;;;;;-2.53;100.00;102701.94;4958151;28;20133;-51
2023/01/21 01:44:58;;;;;;;120.63;46.40;;;;;;;-2.58;100.00;102695.66;4975737;28;20042;-51
2023/01/21 01:47:57;;;;;;;108.85;43.35;;;;;;;-2.63;100.00;102696.25;4975486;28;20482;-50
2023/01/21 01:50:24;;;;;;;124.28;47.10;;;;;;;-2.68;100.00;102721.78;4957604;28;20490;-52
2023/01/21 01:52:49;;;;;;;130.10;45.35;;;;;;;-3.16;100.00;102632.56;4958084;28;20282;-54
2023/01/21 01:55:15;;;;;;;118.80;45.95;;;;;;;-2.83;100.00;102704.66;4958246;28;20038;-50
2023/01/21 01:57:46;;;;;;;129.05;48.08;;;;;;;-2.76;100.00;102720.50;4957959;28;20046;-51
2023/01/21 02:00:11;;;;;;;132.00;46.80;;;;;;;-3.16;100.00;102665.16;4957624;28;20142;-53
2023/01/21 02:02:38;;;;;;;124.22;48.17;;;;;;;-2.72;100.00;102742.16;4958127;28;20122;-49
2023/01/21 02:05:05;;;;;;;126.68;48.25;;;;;;;-3.25;100.00;102655.25;4957656;28;20451;-53
2023/01/21 02:07:38;;;;;;;128.80;46.38;;;;;;;-3.01;100.00;102692.59;4941841;28;20041;-50
2023/01/21 02:10:06;;;;;;;130.10;47.85;;;;;;;-3.19;100.00;102667.56;4958075;28;20034;-52
2023/01/21 02:12:32;;;;;;;132.15;48.83;;;;;;;-2.74;100.00;102749.81;4974821;28;20031;-52
2023/01/21 02:14:57;;;;;;;129.32;46.20;;;;;;;-2.70;100.00;102756.00;4957769;28;20052;-51
2023/01/21 02:17:36;;;;;;;143.90;50.45;;;;;;;-3.10;100.00;102684.41;4975030;28;20042;-52
2023/01/21 02:20:29;;;;;;;134.13;48.42;;;;;;;-2.71;100.00;102752.53;4992454;28;20129;-52
2023/01/21 02:23:26;;;;;;;131.38;46.50;;;;;;;-2.70;100.00;102763.75;4976783;28;20485;-54
2023/01/21 02:26:20;;;;;;;123.63;48.00;;;;;;;-2.73;100.00;102761.00;4976876;28;20109;-51
2023/01/21 02:29:02;;;;;;;128.73;47.25;;;;;;;-2.74;100.00;102790.19;4976964;28;20452;-49
2023/01/21 02:31:30;;;;;;;132.85;48.88;;;;;;;-2.70;100.00;102792.09;4976542;28;20034;-52
2023/01/21 02:34:49;;;;;;;134.90;48.17;;;;;;;-2.59;100.00;102799.59;4994177;28;20041;-49
2023/01/21 02:37:36;;;;;;;146.05;51.08;;;;;;;-2.35;100.00;102811.16;4914870;29;20048;-50
2023/01/21 02:40:26;;;;;;;137.73;52.15;;;;;;;-2.31;100.00;102774.38;4972863;28;20046;-52
2023/01/21 02:43:06;;;;;;;146.77;52.58;;;;;;;-1.88;100.00;102830.72;4976750;28;20437;-52
2023/01/21 02:46:07;;;;;;;151.30;53.90;;;;;;;-1.68;100.00;102818.78;4976470;28;20069;-52
2023/01/21 02:48:39;;;;;;;136.55;48.67;;;;;;;-1.62;100.00;102821.66;4925802;28;20035;-51
2023/01/21 02:51:04;;;;;;;138.00;49.95;;;;;;;-1.86;100.00;102757.72;4976622;28;20056;-52
2023/01/21 02:53:32;;;;;;;131.63;47.92;;;;;;;-1.79;100.00;102766.66;4976955;28;20138;-53
2023/01/21 02:56:03;;;;;;;135.57;48.78;;;;;;;-1.87;100.00;102740.44;4994137;28;20113;-52
2023/01/21 02:58:29;;;;;;;;;;;;;;;-1.33;100.00;102824.84;4995036;28;20041;-51
2023/01/21 03:01:32;;;;;;;114.88;44.83;;;;;;;-1.32;100.00;102828.31;4977587;28;19944;-53
2023/01/21 03:04:03;;;;;;;116.22;43.88;;;;;;;-1.37;100.00;102812.56;4976661;28;20043;-52
2023/01/21 03:06:52;;;;;;;118.80;46.38;;;;;;;-1.53;100.00;102798.88;4994116;28;20109;-52
2023/01/21 03:09:25;;;;;;;113.43;46.17;;;;;;;-1.95;100.00;102738.31;4993887;28;20029;-51
2023/01/21 03:12:08;;;;;;;115.68;46.55;;;;;;;-1.53;100.00;102828.16;4991881;28;20038;-50
2023/01/21 03:17:48;;;;;;;123.38;45.75;;;;;;;-1.69;100.00;102812.72;4978698;28;20085;-53
2023/01/21 03:20:19;;;;;;;121.82;46.78;;;;;;;-1.81;100.00;102822.50;4993685;28;20509;-52
2023/01/21 03:22:46;;;;;;;119.05;46.88;;;;;;;-1.88;100.00;102820.41;4976218;28;20026;-53
2023/01/21 03:25:12;;;;;;;113.03;45.55;;;;;;;-2.47;100.00;102746.06;4975627;28;20109;-49
2023/01/21 03:27:39;;;;;;;128.20;45.53;;;;;;;-2.36;100.00;102785.28;4975564;28;20113;-51
2023/01/21 03:30:11;;;;;;;114.15;44.88;;;;;;;-2.11;100.00;102834.75;4992973;28;20045;-50
2023/01/21 03:32:37;;;;;;;117.72;45.88;;;;;;;-2.15;100.00;102845.72;4975617;28;20389;-51
2023/01/21 03:35:05;;;;;;;129.27;45.90;;;;;;;-2.64;100.00;102766.66;4975622;28;20043;-50
2023/01/21 03:37:42;;;;;;;125.45;47.00;;;;;;;-2.74;100.00;102767.00;4975697;28;20469;-53
2023/01/21 03:40:27;;;;;;;127.57;46.00;;;;;;;-2.94;100.00;102745.31;4975951;28;20026;-52
2023/01/21 03:42:55;;;;;;;123.07;45.47;;;;;;;-2.65;100.00;102809.56;4974809;28;20062;-55
2023/01/21 03:45:34;;;;;;;129.10;45.65;;;;;;;-2.70;100.00;102810.13;4993665;28;20035;-55
2023/01/21 03:48:07;;;;;;;130.93;46.03;;;;;;;-2.85;100.00;102794.75;4959850;28;20038;-53
2023/01/21 03:50:37;;;;;;;129.30;46.75;;;;;;;-2.85;100.00;102789.59;4975741;28;20026;-53
2023/01/21 03:53:03;;;;;;;129.38;47.08;;;;;;;-2.68;100.00;102827.47;4975281;28;20038;-51
2023/01/21 03:55:28;;;;;;;128.93;44.80;;;;;;;-2.56;100.00;102850.41;4975272;28;20026;-54
2023/01/21 03:57:54;;;;;;;134.95;47.20;;;;;;;-2.58;100.00;102865.81;4992988;28;20430;-54
2023/01/21 04:00:19;;;;;;;132.68;45.97;;;;;;;-2.72;100.00;102855.59;4975548;28;20447;-51
2023/01/21 04:02:44;;;;;;;139.10;45.65;;;;;;;-2.69;100.00;102861.78;4958968;28;20541;-54
2023/01/21 04:05:10;;;;;;;140.55;46.10;;;;;;;-3.23;100.00;102773.78;4992655;28;20031;-49
2023/01/21 04:07:35;;;;;;;138.05;47.42;;;;;;;-2.79;100.00;102862.09;4972330;28;20050;-51
2023/01/21 04:10:01;;;;;;;137.60;45.42;;;;;;;-2.79;100.00;102861.19;4992423;28;20059;-57
2023/01/21 04:12:26;;;;;;;141.60;48.60;;;;;;;-3.27;100.00;102787.31;4992675;28;20118;-53
2023/01/21 04:14:51;;;;;;;127.85;46.72;;;;;;;-2.80;100.00;102877.50;4992768;28;20470;-52
2023/01/21 04:17:18;;;;;;;146.90;47.75;;;;;;;-2.82;100.00;102869.66;4992358;28;20439;-52
2023/01/21 04:19:43;;;;;;;125.68;45.13;;;;;;;-3.29;100.00;102792.38;4992266;28;20031;-48
2023/01/21 04:22:08;;;;;;;137.52;47.33;;;;;;;-2.84;100.00;102873.84;4975112;28;20039;-54
2023/01/21 04:24:34;;;;;;;136.95;47.30;;;;;;;-2.83;100.00;102867.00;4992261;28;20033;-52
2023/01/21 04:26:59;;;;;;;132.70;47.90;;;;;;;-2.85;100.00;102869.50;4975236;28;20048;-53
2023/01/21 04:29:24;;;;;;;139.30;48.92;;;;;;;-2.95;100.00;102846.63;4992237;28;20042;-50
2023/01/21 04:31:49;;;;;;;133.38;48.00;;;;;;;-2.83;100.00;102864.44;4992264;28;20042;-48
2023/01/21 04:34:18;;;;;;;147.73;49.00;;;;;;;-2.81;100.00;102871.44;4992407;28;20043;-52
2023/01/21 04:36:43;;;;;;;134.30;49.17;;;;;;;-2.81;100.00;102879.16;4992246;28;20445;-52
2023/01/21 04:39:10;;;;;;;126.82;46.60;;;;;;;-2.82;100.00;102887.69;4992202;28;20061;-53
2023/01/21 04:41:35;;;;;;;130.13;45.17;;;;;;;-2.84;100.00;102879.00;4992505;28;20034;-55
2023/01/21 04:44:00;;;;;;;141.05;45.88;;;;;;;-2.88;100.00;102874.47;4992290;28;20027;-51
2023/01/21 04:46:26;;;;;;;128.25;44.88;;;;;;;-3.34;100.00;102800.66;4992098;28;20061;-54
2023/01/21 04:48:51;;;;;;;130.55;46.08;;;;;;;-2.90;100.00;102888.97;4992468;28;20408;-56
2023/01/21 04:51:16;;;;;;;140.43;48.83;;;;;;;-3.45;100.00;102800.97;4992275;28;20034;-51
2023/01/21 04:53:42;;;;;;;138.25;46.40;;;;;;;-3.07;100.00;102879.44;4993829;28;20038;-51
2023/01/21 04:56:07;;;;;;;129.60;47.38;;;;;;;-3.49;100.00;102808.41;4978796;28;20033;-53
2023/01/21 04:58:33;;;;;;;131.63;47.85;;;;;;;-3.03;100.00;102896.81;4995985;28;20069;-52
2023/01/21 05:00:58;;;;;;;137.55;44.95;;;;;;;-3.26;100.00;102866.34;4991897;28;20070;-52
2023/01/21 05:03:24;;;;;;;135.10;45.50;;;;;;;-3.17;100.00;102883.19;4995686;28;20101;-48
2023/01/21 05:05:49;;;;;;;143.30;47.63;;;;;;;-3.08;100.00;102906.88;4995946;28;20038;-53
2023/01/21 05:08:14;;;;;;;133.15;48.10;;;;;;;-3.53;100.00;102825.38;4995806;28;20125;-51
2023/01/21 05:10:40;;;;;;;134.27;43.90;;;;;;;-3.09;100.00;102928.28;4995718;28;20038;-49
2023/01/21 05:13:05;;;;;;;123.20;45.83;;;;;;;-3.11;100.00;102909.28;4995747;28;20041;-50
2023/01/21 05:15:31;;;;;;;129.20;46.55;;;;;;;-3.11;100.00;102904.16;4995526;28;20045;-51
2023/01/21 05:17:56;;;;;;;129.18;46.35;;;;;;;-3.15;100.00;102911.63;4995792;28;20050;-52
2023/01/21 05:20:22;;;;;;;131.45;48.70;;;;;;;-3.63;100.00;102827.34;4995570;28;20034;-53
2023/01/21 05:22:47;;;;;;;134.98;46.70;;;;;;;-3.21;100.00;102901.84;4995159;28;20069;-48
2023/01/21 05:25:13;;;;;;;138.73;47.38;;;;;;;-3.28;100.00;102902.31;4995515;28;20038;-54
2023/01/21 05:27:39;;;;;;;140.88;47.15;;;;;;;-3.18;100.00;102912.31;4978315;28;20089;-53
2023/01/21 05:30:05;;;;;;;144.30;48.30;;;;;;;-3.33;100.00;102911.47;4977581;28;20035;-49
2023/01/21 05:32:30;;;;;;;134.55;45.58;;;;;;;-3.24;100.00;102926.56;4977834;28;20133;-50
2023/01/21 05:34:55;;;;;;;156.65;48.10;;;;;;;-3.75;100.00;102850.72;4995351;28;20481;-52
2023/01/21 05:37:21;;;;;;;141.10;49.13;;;;;;;-3.30;100.00;102933.94;4995203;28;20037;-49
2023/01/21 05:39:46;;;;;;;134.45;47.80;;;;;;;-3.24;100.00;102942.00;4995179;28;20052;-49
2023/01/21 05:42:11;;;;;;;149.07;47.97;;;;;;;-3.66;100.00;102863.22;4995278;28;20530;-50
2023/01/21 05:44:37;;;;;;;137.77;46.50;;;;;;;-3.71;100.00;102860.41;4995205;28;20438;-50
2023/01/21 05:47:02;;;;;;;139.48;46.85;;;;;;;-3.24;100.00;102950.59;4995179;28;20038;-49
2023/01/21 05:49:27;;;;;;;144.60;47.20;;;;;;;-3.49;100.00;102908.81;4994685;28;20117;-48
2023/01/21 05:51:53;;;;;;;140.98;49.13;;;;;;;-3.27;100.00;102953.03;4994919;28;20041;-50
2023/01/21 05:54:18;;;;;;;135.23;47.55;;;;;;;-3.30;100.00;102960.59;4993495;28;20053;-55
2023/01/21 05:56:43;;;;;;;138.80;47.22;;;;;;;-3.29;100.00;102964.91;4976568;28;20046;-54
2023/01/21 05:59:09;;;;;;;143.73;49.25;;;;;;;-3.35;100.00;102964.56;4994734;28;20100;-50
2023/01/21 06:01:34;;;;;;;150.90;49.55;;;;;;;-3.45;100.00;102940.00;4994705;28;20137;-53
2023/01/21 06:03:59;;;;;;;139.10;46.55;;;;;;;-3.70;100.00;102908.47;4994853;28;20146;-51
2023/01/21 06:06:25;;;;;;;137.98;47.05;;;;;;;-3.42;100.00;102972.75;4993789;28;20117;-50
2023/01/21 06:08:50;;;;;;;159.10;49.00;;;;;;;-3.83;100.00;102889.66;4977010;28;20030;-49
2023/01/21 06:11:15;;;;;;;143.73;47.53;;;;;;;-3.33;100.00;102988.72;4994664;28;20037;-49
2023/01/21 06:13:41;;;;;;;151.77;48.63;;;;;;;-3.32;100.00;102993.06;4994747;28;20052;-51
2023/01/21 06:16:06;;;;;;;140.45;48.80;;;;;;;-3.31;100.00;102993.97;4994747;28;20070;-51
2023/01/21 06:18:31;;;;;;;148.70;49.00;;;;;;;-3.33;100.00;102988.72;4994428;28;20133;-51
2023/01/21 06:21:00;;;;;;;152.02;48.63;;;;;;;-3.39;100.00;103000.34;4994418;28;20042;-48
2023/01/21 06:23:26;;;;;;;148.93;49.78;;;;;;;-3.35;100.00;103003.19;4976818;28;20033;-51
2023/01/21 06:25:51;;;;;;;159.95;51.10;;;;;;;-3.82;100.00;102925.75;4994585;28;20034;-51
2023/01/21 06:28:17;;;;;;;156.68;49.40;;;;;;;-3.41;100.00;103000.25;4994316;28;20075;-50
2023/01/21 06:30:42;;;;;;;150.32;49.28;;;;;;;-3.76;100.00;102945.81;4976771;28;20125;-50
2023/01/21 06:33:07;;;;;;;140.68;49.75;;;;;;;-3.37;100.00;103024.50;4994056;28;20128;-50
2023/01/21 06:35:33;;;;;;;154.65;50.97;;;;;;;-3.52;100.00;102993.59;4994114;28;20042;-47
2023/01/21 06:37:58;;;;;;;151.07;49.00;;;;;;;-3.39;100.00;103021.84;4993991;28;20030;-51
2023/01/21 06:40:24;;;;;;;143.82;46.63;;;;;;;-4.30;100.00;102864.63;4994211;28;20038;-48
2023/01/21 06:42:49;;;;;;;140.27;47.95;;;;;;;-3.47;100.00;103002.47;4993954;28;20125;-48
2023/01/21 06:45:15;;;;;;;146.70;48.35;;;;;;;-3.60;100.00;102979.41;4994088;28;20482;-52
2023/01/21 06:47:42;;;;;;;145.88;48.28;;;;;;;-3.26;100.00;103033.72;4994100;28;20097;-48
2023/01/21 06:50:11;;;;;;;147.30;49.67;;;;;;;-3.20;100.00;103028.94;4990939;28;20030;-53
2023/01/21 06:52:37;;;;;;;141.60;52.53;;;;;;;-3.14;100.00;103037.03;4994588;28;20068;-53
2023/01/21 06:55:03;;;;;;;150.27;49.13;;;;;;;-3.59;100.00;102953.72;4977466;28;20050;-48
2023/01/21 06:57:29;;;;;;;155.05;50.33;;;;;;;-3.14;100.00;103043.06;4994720;28;20045;-52
2023/01/21 06:59:54;;;;;;;140.75;48.97;;;;;;;-3.63;100.00;102950.91;4993754;28;20086;-50
2023/01/21 07:02:20;;;;;;;160.68;51.95;;;;;;;-3.16;100.00;103038.63;4970952;28;20490;-50
2023/01/21 07:04:49;;;;;;;140.68;49.85;;;;;;;-3.16;100.00;103056.66;4972953;28;20085;-51
2023/01/21 07:07:14;;;;;;;141.75;48.65;;;;;;;-3.68;100.00;102960.03;4972678;28;20046;-50
2023/01/21 07:09:39;;;;;;;158.88;52.40;;;;;;;-3.18;100.00;103045.41;4974099;28;20185;-52
2023/01/21 07:12:05;;;;;;;151.07;52.53;;;;;;;-3.57;100.00;102979.56;4974118;28;20035;-52
2023/01/21 07:14:30;;;;;;;152.70;52.05;;;;;;;-3.65;100.00;102973.09;4974264;28;20053;-51
2023/01/21 07:16:55;;;;;;;161.88;52.58;;;;;;;-3.19;100.00;103064.22;4973914;28;20059;-50
2023/01/21 07:19:21;;;;;;;160.38;50.30;;;;;;;-3.24;100.00;103071.66;4973613;28;20157;-50
2023/01/21 07:21:46;;;;;;;167.80;51.80;;;;;;;-3.36;100.00;103049.47;4973966;28;20038;-49
2023/01/21 07:24:11;;;;;;;161.88;50.47;;;;;;;-3.50;100.00;103036.66;4972636;28;20038;-50
2023/01/21 07:26:37;;;;;;;151.57;49.03;;;;;;;-3.90;100.00;102985.28;4972472;28;20034;-52
2023/01/21 07:29:05;;;;;;;153.23;52.03;;;;;;;-4.01;100.00;102962.41;4973846;28;20414;-54
2023/01/21 07:31:31;;;;;;;147.23;49.17;;;;;;;-3.95;100.00;102982.44;4973391;28;20074;-50
2023/01/21 07:33:56;;;;;;;160.75;52.00;;;;;;;-3.51;100.00;103065.78;4973247;28;20042;-50
2023/01/21 07:36:21;;;;;;;160.27;51.95;;;;;;;-4.08;100.00;102977.34;4971965;28;20046;-51
2023/01/21 07:38:47;;;;;;;160.93;52.25;;;;;;;-3.91;100.00;103004.13;4973758;28;20066;-54
2023/01/21 07:41:12;;;;;;;156.18;52.72;;;;;;;-4.02;100.00;102991.47;4973589;28;20097;-54
2023/01/21 07:43:37;;;;;;;162.27;51.83;;;;;;;-3.56;100.00;103077.47;4965648;28;20024;-54
2023/01/21 07:46:03;;;;;;;162.98;52.60;;;;;;;-4.01;100.00;103002.66;4953893;28;20039;-52
2023/01/21 07:48:28;;;;;;;164.55;53.45;;;;;;;-3.55;100.00;103088.66;4936920;29;20031;-50
2023/01/21 07:50:57;;;;;;;163.32;53.05;;;;;;;-3.53;100.00;103092.19;4952885;29;20403;-52
2023/01/21 07:53:23;;;;;;;163.27;53.05;;;;;;;-3.95;100.00;103030.44;4954013;28;20035;-51
2023/01/21 07:55:48;;;;;;;167.65;52.88;;;;;;;-3.54;100.00;103118.75;4954103;28;20054;-52
2023/01/21 07:58:13;;;;;;;160.63;54.15;;;;;;;-3.62;100.00;103097.69;4953869;28;20391;-50
2023/01/21 08:00:39;;;;;;;159.10;53.95;;;;;;;-3.90;100.00;103039.31;4953650;28;20500;-50
2023/01/21 08:03:04;;;;;;;167.90;54.05;;;;;;;-3.94;100.00;103038.22;4969215;28;20422;-50
2023/01/21 08:05:29;;;;;;;182.38;57.35;;;;;;;-3.39;100.00;103134.25;4955502;28;20056;-50
2023/01/21 08:07:56;;;;;;;167.38;51.80;;;;;;;-3.34;100.00;103136.31;4973248;28;20284;-53
2023/01/21 08:10:21;;;;;;;182.63;57.63;;;;;;;-3.50;100.00;103108.72;4972941;28;20438;-50
2023/01/21 08:12:47;;;;;;;180.10;55.58;;;;;;;-3.28;100.00;103133.19;4972666;28;20050;-51
2023/01/21 08:15:12;;;;;;;176.45;56.60;;;;;;;-3.25;100.00;103142.00;4973018;28;20061;-53
2023/01/21 08:17:38;;;;;;;169.82;55.13;;;;;;;-3.62;100.00;103071.94;4955770;28;20041;-50
2023/01/21 08:20:05;;;;;;;176.02;54.42;;;;;;;-3.16;100.00;103144.25;4972683;28;20082;-55
2023/01/21 08:22:30;;;;;;;181.80;57.67;;;;;;;-3.08;100.00;103151.63;4972603;28;20039;-50
2023/01/21 08:24:56;;;;;;;173.95;56.08;;;;;;;-3.04;100.00;103148.44;4973085;28;20150;-52
2023/01/21 08:27:21;;;;;;;170.90;56.20;;;;;;;-3.02;100.00;103148.53;4972520;28;20066;-50
2023/01/21 08:29:47;;;;;;;180.27;54.22;;;;;;;-3.01;100.00;103148.63;4972385;28;20038;-50
2023/01/21 08:32:13;;;;;;;167.82;56.25;;;;;;;-3.48;100.00;103053.09;4971975;28;20047;-49
2023/01/21 08:34:38;;;;;;;174.88;53.75;;;;;;;-3.05;100.00;103138.94;4972461;28;20031;-54
2023/01/21 08:37:03;;;;;;;189.35;56.05;;;;;;;-2.94;100.00;103155.00;4975373;28;20481;-53
2023/01/21 08:39:28;;;;;;;180.38;57.60;;;;;;;-2.89;100.00;103161.34;4991749;28;20209;-50
2023/01/21 08:41:54;;;;;;;173.98;58.83;;;;;;;-3.18;100.00;103099.47;4992328;28;20088;-52
2023/01/21 08:44:19;;;;;;;183.65;56.13;;;;;;;-3.12;100.00;103099.81;4992107;28;20041;-52
2023/01/21 08:46:44;;;;;;;199.00;59.83;;;;;;;-3.08;100.00;103097.53;4992237;28;20123;-51
2023/01/21 08:49:10;;;;;;;201.57;58.90;;;;;;;-2.70;100.00;103150.41;4974404;28;21055;-54
2023/01/21 08:51:35;;;;;;;172.85;54.38;;;;;;;-2.62;100.00;103165.50;4992197;28;20050;-54
2023/01/21 08:54:00;;;;;;;189.07;56.60;;;;;;;-2.56;100.00;103164.97;4992039;28;20075;-53
2023/01/21 08:56:26;;;;;;;183.15;55.63;;;;;;;-2.51;100.00;103164.44;4974825;28;20090;-52
2023/01/21 08:58:55;;;;;;;197.48;57.50;;;;;;;-2.53;100.00;103145.41;4991836;28;20085;-52
2023/01/21 09:01:21;;;;;;;183.38;58.80;;;;;;;-2.35;100.00;103164.53;4991623;28;20442;-51
2023/01/21 09:03:46;;;;;;;192.77;59.03;;;;;;;-2.37;100.00;103162.66;4974030;28;20133;-50
2023/01/21 09:06:11;;;;;;;202.85;60.38;;;;;;;-2.71;100.00;103087.63;4974332;28;20086;-55
2023/01/21 09:08:38;;;;;;;197.82;59.85;;;;;;;-2.57;100.00;103102.19;4974277;28;20034;-52
2023/01/21 09:11:05;;;;;;;191.27;59.63;;;;;;;-2.14;100.00;103167.41;4991761;28;20502;-53
2023/01/21 09:13:32;;;;;;;195.80;58.72;;;;;;;-1.99;100.00;103180.28;4974297;28;20433;-53
2023/01/21 09:15:57;;;;;;;187.15;60.08;;;;;;;-2.40;100.00;103098.91;4991402;28;20113;-53
2023/01/21 09:18:23;;;;;;;198.63;61.33;;;;;;;-2.28;100.00;103102.13;4974347;28;20434;-54
2023/01/21 09:20:48;;;;;;;195.77;60.50;;;;;;;-1.63;100.00;103186.59;4992039;28;20474;-50
2023/01/21 09:23:22;;;;;;;182.25;61.30;;;;;;;-1.48;100.00;103177.06;4991823;28;20465;-53
2023/01/21 09:26:15;;;;;;;192.60;59.88;;;;;;;-1.16;100.00;103179.66;4991886;28;20286;-55
2023/01/21 09:28:41;;;;;;;194.55;61.00;;;;;;;-0.99;100.00;103184.00;4991548;28;20042;-54
2023/01/21 09:31:09;;;;;;;196.02;60.78;;;;;;;-0.88;100.00;103194.91;4970305;28;20085;-56
2023/01/21 09:33:37;;;;;;;178.68;56.25;;;;;;;-1.36;100.00;103095.94;4974274;28;20037;-52
2023/01/21 09:36:04;;;;;;;176.10;60.75;;;;;;;-0.79;100.00;103193.66;4991309;28;20137;-53
2023/01/21 09:38:30;;;;;;;194.32;61.80;;;;;;;-0.71;100.00;103188.88;4974327;28;20436;-50
2023/01/21 09:41:01;;;;;;;186.43;60.85;;;;;;;-1.16;100.00;103095.25;4993479;28;20125;-52
2023/01/21 09:43:39;;;;;;;197.57;62.53;;;;;;;-0.68;100.00;103182.19;4977613;28;20026;-51
2023/01/21 09:46:12;;;;;;;182.65;60.10;;;;;;;-0.95;100.00;103110.06;4977916;28;20054;-49
2023/01/21 09:48:41;;;;;;;170.85;58.63;;;;;;;-0.40;100.00;103199.94;4977576;28;20397;-55
2023/01/21 09:51:17;;;;;;;187.23;59.58;;;;;;;-0.31;100.00;103209.88;4977353;28;20034;-50
2023/01/21 09:53:47;;;;;;;163.35;57.00;;;;;;;-0.45;100.00;103229.91;4960977;28;20034;-52
2023/01/21 09:56:23;;;;;;;171.35;59.55;;;;;;;-0.90;100.00;103148.28;4977680;28;20039;-51
2023/01/21 09:58:57;;;;;;;156.32;56.75;;;;;;;-0.63;100.00;103197.91;4977477;28;20038;-50
2023/01/21 10:01:31;;;;;;;171.95;59.33;;;;;;;-0.90;100.00;103152.56;4995076;28;20038;-55
2023/01/21 10:04:39;;;;;;;162.88;57.63;;;;;;;-0.45;100.00;103241.94;4976981;28;20049;-55
2023/01/21 10:07:13;;;;;;;165.90;55.20;;;;;;;-0.61;100.00;103204.03;4994812;28;20053;-55
2023/01/21 10:09:47;;;;;;;131.48;46.10;;;;;;;-0.39;100.00;103256.06;4960519;28;20030;-53
2023/01/21 10:12:50;;;;;;;129.70;45.13;;;;;;;-0.31;100.00;103230.56;4994474;28;20034;-52
2023/01/21 10:15:27;;;;;;;122.35;41.15;;;;;;;-0.30;100.00;103229.78;4993260;28;20405;-50
2023/01/21 10:17:56;;;;;;;109.18;40.08;;;;;;;-0.34;100.00;103233.00;4994097;28;20034;-53
2023/01/21 10:20:29;;;;;;;105.53;42.10;;;;;;;-0.28;100.00;103243.66;4976902;28;20022;-51
2023/01/21 10:23:24;;;;;;;108.72;40.03;;;;;;;-0.67;100.00;103146.84;4977011;28;20033;-51
2023/01/21 10:25:49;;;;;;;108.38;39.20;;;;;;;-0.47;100.00;103190.13;4974375;28;20037;-48
2023/01/21 10:28:22;;;;;;;106.55;39.67;;;;;;;-0.43;100.00;103228.25;4960607;28;20433;-51
2023/01/21 10:30:53;;;;;;;103.55;38.80;;;;;;;-0.67;100.00;103172.69;4994186;28;20023;-53
2023/01/21 10:33:23;;;;;;;;;;;;;;;0.00;100.00;103241.63;4994392;28;20474;-52
2023/01/21 10:36:26;;;;;;;125.50;39.70;;;;;;;0.25;100.00;103246.28;4994380;28;20266;-52
2023/01/21 10:39:18;;;;;;;106.13;41.28;;;;;;;0.36;100.00;103271.88;4993649;28;20094;-53
2023/01/21 10:42:22;;;;;;;116.78;41.90;;;;;;;0.06;100.00;103262.63;4993966;28;20045;-48
2023/01/21 10:44:50;;;;;;;110.60;41.15;;;;;;;-0.11;100.00;103266.09;4931008;28;20490;-51
2023/01/21 10:47:58;;;;;;;122.50;42.08;;;;;;;-0.36;100.00;103264.00;4973204;28;20062;-51
2023/01/21 10:50:41;;;;;;;131.40;43.28;;;;;;;-0.95;100.00;103192.81;4961567;28;20054;-52
2023/01/21 10:53:29;;;;;;;112.20;42.28;;;;;;;-0.67;100.00;103247.69;4957014;28;20122;-52
2023/01/21 10:56:02;;;;;;;102.38;40.15;;;;;;;-0.98;100.00;103190.94;4974145;28;20110;-49
2023/01/21 10:58:41;;;;;;;104.50;39.47;;;;;;;-0.47;100.00;103261.69;4974310;28;20122;-50
2023/01/21 11:01:14;;;;;;;95.45;39.08;;;;;;;-0.43;100.00;103259.31;4974368;28;20031;-52
2023/01/21 11:03:42;;;;;;;95.50;37.65;;;;;;;-0.42;100.00;103242.97;4974245;28;20120;-49
2023/01/21 11:06:12;;;;;;;98.88;38.83;;;;;;;-0.21;100.00;103259.59;4956914;28;20031;-51
2023/01/21 11:08:38;;;;;;;87.80;37.65;;;;;;;-0.33;100.00;103261.56;4973941;28;20023;-49